createdAt,value
2023-03-29T00:01:42.314Z,4.15
2023-03-29T00:04:10.597Z,4.18
2023-03-29T00:06:38.080Z,4.20
2023-03-29T00:09:09.603Z,4.25
2023-03-29T00:11:36.155Z,4.29
2023-03-29T00:14:05.771Z,4.25
2023-03-29T00:16:32.840Z,4.25
2023-03-29T00:18:59.361Z,4.22
2023-03-29T00:21:25.882Z,4.16
2023-03-29T00:23:52.948Z,4.15
2023-03-29T00:26:19.487Z,4.10
2023-03-29T00:28:46.674Z,4.15
2023-03-29T00:31:17.006Z,4.18
2023-03-29T00:33:45.385Z,4.15
2023-03-29T00:36:13.145Z,4.25
2023-03-29T00:38:39.937Z,4.21
2023-03-29T00:41:07.922Z,4.27
2023-03-29T00:43:52.860Z,4.20
2023-03-29T00:46:19.332Z,4.25
2023-03-29T00:48:49.028Z,4.19
2023-03-29T00:51:18.983Z,4.21
2023-03-29T00:53:54.011Z,4.21
2023-03-29T00:56:27.537Z,4.22
2023-03-29T00:59:02.914Z,4.26
2023-03-29T01:01:38.021Z,4.24
2023-03-29T01:04:20.452Z,4.19
2023-03-29T01:06:55.571Z,4.26
2023-03-29T01:09:25.408Z,4.16
2023-03-29T01:11:55.658Z,4.14
2023-03-29T01:14:38.850Z,4.15
2023-03-29T01:17:06.423Z,4.08
2023-03-29T01:19:43.771Z,4.08
2023-03-29T01:22:17.043Z,4.06
2023-03-29T01:24:59.658Z,4.09
2023-03-29T01:28:00.633Z,4.13
2023-03-29T01:30:33.085Z,4.15
2023-03-29T01:33:13.248Z,4.18
2023-03-29T01:35:48.292Z,4.20
2023-03-29T01:38:19.637Z,4.21
2023-03-29T01:40:46.102Z,4.27
2023-03-29T01:43:19.328Z,4.28
2023-03-29T01:46:04.873Z,4.27
2023-03-29T01:48:55.895Z,4.24
2023-03-29T01:51:34.628Z,4.25
2023-03-29T01:54:10.044Z,4.21
2023-03-29T01:56:41.083Z,4.23
2023-03-29T01:59:13.175Z,4.19
2023-03-29T02:01:49.271Z,4.18
2023-03-29T02:04:19.983Z,4.29
2023-03-29T02:06:50.122Z,4.34
2023-03-29T02:09:18.121Z,4.32
2023-03-29T02:11:45.334Z,4.39
2023-03-29T02:14:11.844Z,4.39
2023-03-29T02:16:39.174Z,4.42
2023-03-29T02:19:07.874Z,4.42
2023-03-29T02:21:41.917Z,4.45
2023-03-29T02:24:13.263Z,4.45
2023-03-29T02:26:39.831Z,4.50
2023-03-29T02:29:06.354Z,4.41
2023-03-29T02:31:47.693Z,4.40
2023-03-29T02:34:26.803Z,4.37
2023-03-29T02:37:06.837Z,4.45
2023-03-29T02:39:35.021Z,4.53
2023-03-29T02:42:03.854Z,4.47
2023-03-29T02:44:32.872Z,4.45
2023-03-29T02:47:08.190Z,4.46
2023-03-29T02:49:34.637Z,4.47
2023-03-29T02:52:08.314Z,4.48
2023-03-29T02:54:37.890Z,4.48
2023-03-29T02:57:08.822Z,4.54
2023-03-29T02:59:36.235Z,4.56
2023-03-29T03:02:03.606Z,4.58
2023-03-29T03:04:30.443Z,4.62
2023-03-29T03:06:57.729Z,4.63
2023-03-29T03:09:24.403Z,4.64
2023-03-29T03:11:51.179Z,4.64
2023-03-29T03:14:19.013Z,4.71
2023-03-29T03:16:46.189Z,4.69
2023-03-29T03:19:13.246Z,4.72
2023-03-29T03:21:39.658Z,4.67
2023-03-29T03:24:07.528Z,4.69
2023-03-29T03:26:35.837Z,4.75
2023-03-29T03:29:02.296Z,4.72
2023-03-29T03:31:29.254Z,4.72
2023-03-29T03:33:56.613Z,4.80
2023-03-29T03:36:29.254Z,4.73
2023-03-29T03:38:55.713Z,4.76
2023-03-29T03:41:23.296Z,4.76
2023-03-29T03:43:49.754Z,4.76
2023-03-29T03:46:17.498Z,4.78
2023-03-29T03:48:45.319Z,4.82
2023-03-29T03:51:12.981Z,4.78
2023-03-29T03:53:39.936Z,4.86
2023-03-29T03:56:09.412Z,4.81
2023-03-29T03:58:37.133Z,4.87
2023-03-29T04:01:04.917Z,4.89
2023-03-29T04:03:31.855Z,4.88
2023-03-29T04:06:02.796Z,4.89
2023-03-29T04:08:30.244Z,4.82
2023-03-29T04:10:58.394Z,4.88
2023-03-29T04:13:26.394Z,4.88
2023-03-29T04:15:59.438Z,4.92
2023-03-29T04:18:27.641Z,4.91
2023-03-29T04:20:54.342Z,4.92
2023-03-29T04:23:20.916Z,4.95
2023-03-29T04:25:47.593Z,4.86
2023-03-29T04:28:14.053Z,4.97
2023-03-29T04:30:40.694Z,4.92
2023-03-29T04:33:07.427Z,4.99
2023-03-29T04:35:34.436Z,4.98
2023-03-29T04:38:01.150Z,4.93
2023-03-29T04:40:28.794Z,4.85
2023-03-29T04:42:55.340Z,4.83
2023-03-29T04:45:22.120Z,4.95
2023-03-29T04:47:49.380Z,4.88
2023-03-29T04:50:15.964Z,4.99
2023-03-29T04:52:42.731Z,4.91
2023-03-29T04:55:09.328Z,4.88
2023-03-29T04:57:35.892Z,4.94
2023-03-29T05:00:08.241Z,4.95
2023-03-29T05:02:35.031Z,4.90
2023-03-29T05:05:01.467Z,4.86
2023-03-29T05:07:30.169Z,4.96
2023-03-29T05:09:57.079Z,4.93
2023-03-29T05:12:23.479Z,5.01
2023-03-29T05:14:49.872Z,5.01
2023-03-29T05:17:16.363Z,4.96
2023-03-29T05:19:43.853Z,4.94
2023-03-29T05:22:10.429Z,5.05
2023-03-29T05:24:37.423Z,5.15
2023-03-29T05:27:04.846Z,5.08
2023-03-29T05:29:32.773Z,5.03
2023-03-29T05:31:59.664Z,5.11
2023-03-29T05:34:26.509Z,5.12
2023-03-29T05:36:53.078Z,5.11
2023-03-29T05:39:19.795Z,5.13
2023-03-29T05:41:46.471Z,5.12
2023-03-29T05:44:12.894Z,5.12
2023-03-29T05:46:39.267Z,5.20
2023-03-29T05:49:06.837Z,5.26
2023-03-29T05:51:33.398Z,5.20
2023-03-29T05:54:00.047Z,5.22
2023-03-29T05:56:27.083Z,5.27
2023-03-29T05:58:56.907Z,5.29
2023-03-29T06:01:24.865Z,5.34
2023-03-29T06:03:52.185Z,5.28
2023-03-29T06:06:19.421Z,5.27
2023-03-29T06:08:46.290Z,5.34
2023-03-29T06:11:13.510Z,5.38
2023-03-29T06:13:41.401Z,5.29
2023-03-29T06:16:10.957Z,5.37
2023-03-29T06:18:40.018Z,5.38
2023-03-29T06:21:09.143Z,5.46
2023-03-29T06:23:36.909Z,5.50
2023-03-29T06:26:04.366Z,5.58
2023-03-29T06:28:30.984Z,5.53
2023-03-29T06:31:02.697Z,5.59
2023-03-29T06:33:32.670Z,5.56
2023-03-29T06:35:59.579Z,5.59
2023-03-29T06:38:28.287Z,5.72
2023-03-29T06:41:08.081Z,5.90
2023-03-29T06:43:34.831Z,5.83
2023-03-29T06:46:02.151Z,5.86
2023-03-29T06:48:29.002Z,5.87
2023-03-29T06:50:56.062Z,5.93
2023-03-29T06:53:22.744Z,5.99
2023-03-29T06:55:51.021Z,6.00
2023-03-29T06:58:17.837Z,6.08
2023-03-29T07:00:44.255Z,6.10
2023-03-29T07:03:13.401Z,6.24
2023-03-29T07:05:41.981Z,6.35
2023-03-29T07:08:08.654Z,6.46
2023-03-29T07:10:43.398Z,6.49
2023-03-29T07:13:14.277Z,6.50
2023-03-29T07:15:43.593Z,6.49
2023-03-29T07:18:11.018Z,6.62
2023-03-29T07:20:39.110Z,6.66
2023-03-29T07:23:06.902Z,6.75
2023-03-29T07:25:34.082Z,6.81
2023-03-29T07:28:00.708Z,6.80
2023-03-29T07:30:34.265Z,6.81
2023-03-29T07:33:02.300Z,6.80
2023-03-29T07:35:29.033Z,6.71
2023-03-29T07:37:55.875Z,6.81
2023-03-29T07:40:23.811Z,6.69
2023-03-29T07:42:56.652Z,6.66
2023-03-29T07:45:28.250Z,6.68
2023-03-29T07:47:57.368Z,6.57
2023-03-29T07:50:24.821Z,6.55
2023-03-29T07:52:51.797Z,6.64
2023-03-29T07:55:18.431Z,6.66
2023-03-29T07:57:45.258Z,6.79
2023-03-29T08:00:17.258Z,6.80
2023-03-29T08:02:48.368Z,7.00
2023-03-29T08:05:20.884Z,7.07
2023-03-29T08:07:52.890Z,7.21
2023-03-29T08:10:21.219Z,7.25
2023-03-29T08:12:49.364Z,7.29
2023-03-29T08:15:16.568Z,7.43
2023-03-29T08:17:43.305Z,7.47
2023-03-29T08:20:13.420Z,7.53
2023-03-29T08:22:40.469Z,7.64
2023-03-29T08:25:08.105Z,7.70
2023-03-29T08:27:37.689Z,7.85
2023-03-29T08:30:09.434Z,7.96
2023-03-29T08:32:37.355Z,8.05
2023-03-29T08:35:06.559Z,8.06
2023-03-29T08:37:33.198Z,8.11
2023-03-29T08:40:01.192Z,8.15
2023-03-29T08:42:49.206Z,8.11
2023-03-29T08:45:51.034Z,8.34
2023-03-29T08:48:32.806Z,8.49
2023-03-29T08:51:18.412Z,8.62
2023-03-29T08:54:08.465Z,8.84
2023-03-29T08:56:37.931Z,8.94
2023-03-29T08:59:12.693Z,9.16
2023-03-29T09:01:40.771Z,9.10
2023-03-29T09:04:16.477Z,9.07
2023-03-29T09:06:44.455Z,9.07
2023-03-29T09:09:32.853Z,9.15
2023-03-29T09:12:15.092Z,9.26
2023-03-29T09:14:47.370Z,9.35
2023-03-29T09:17:25.746Z,9.49
2023-03-29T09:20:04.325Z,9.59
2023-03-29T09:22:56.292Z,9.65
2023-03-29T09:25:52.569Z,9.57
2023-03-29T09:28:37.474Z,9.61
2023-03-29T09:31:15.466Z,9.68
2023-03-29T09:33:47.672Z,9.73
2023-03-29T09:36:43.402Z,9.94
2023-03-29T09:39:14.500Z,10.05
2023-03-29T09:41:48.022Z,10.19
2023-03-29T09:44:30.212Z,10.26
2023-03-29T09:47:07.749Z,10.37
2023-03-29T09:49:43.495Z,10.39
2023-03-29T09:52:14.019Z,10.37
2023-03-29T09:54:41.128Z,10.46
2023-03-29T09:57:12.552Z,10.63
2023-03-29T09:59:39.866Z,10.65
2023-03-29T10:02:09.137Z,10.63
2023-03-29T10:04:36.806Z,10.89
2023-03-29T10:07:04.741Z,10.88
2023-03-29T10:09:32.487Z,10.83
2023-03-29T10:12:03.141Z,10.74
2023-03-29T10:14:35.580Z,10.66
2023-03-29T10:17:05.645Z,10.62
2023-03-29T10:19:37.306Z,10.58
2023-03-29T10:22:16.428Z,10.69
2023-03-29T10:24:52.028Z,10.66
2023-03-29T10:27:28.144Z,10.77
2023-03-29T10:29:57.117Z,10.80
2023-03-29T10:32:24.021Z,10.89
2023-03-29T10:34:52.677Z,11.02
2023-03-29T10:37:21.056Z,10.96
2023-03-29T10:39:49.338Z,11.05
2023-03-29T10:42:19.552Z,11.06
2023-03-29T10:44:59.249Z,11.13
2023-03-29T10:47:28.560Z,11.10
2023-03-29T10:49:58.862Z,11.12
2023-03-29T10:52:25.973Z,11.08
2023-03-29T10:54:56.799Z,11.07
2023-03-29T10:57:56.192Z,11.16
2023-03-29T11:00:42.019Z,11.39
2023-03-29T11:03:21.469Z,11.42
2023-03-29T11:05:59.298Z,11.68
2023-03-29T11:09:01.551Z,11.80
2023-03-29T11:11:45.914Z,12.01
2023-03-29T11:14:29.162Z,12.26
2023-03-29T11:16:56.131Z,12.42
2023-03-29T11:19:22.993Z,12.45
2023-03-29T11:22:23.072Z,12.62
2023-03-29T11:25:04.689Z,12.68
2023-03-29T11:27:36.386Z,12.64
2023-03-29T11:30:06.362Z,12.84
2023-03-29T11:32:37.259Z,12.78
2023-03-29T11:35:18.750Z,12.94
2023-03-29T11:38:05.522Z,13.12
2023-03-29T11:40:57.613Z,13.03
2023-03-29T11:43:35.946Z,13.11
2023-03-29T11:46:17.795Z,13.36
2023-03-29T11:48:56.748Z,13.54
2023-03-29T11:51:26.188Z,13.77
2023-03-29T11:54:02.144Z,13.94
2023-03-29T11:56:46.781Z,14.37
2023-03-29T11:59:24.667Z,14.92
2023-03-29T12:02:02.122Z,15.13
2023-03-29T12:04:38.584Z,15.28
2023-03-29T12:07:22.513Z,15.55
2023-03-29T12:09:53.917Z,15.57
2023-03-29T12:12:25.292Z,15.47
2023-03-29T12:15:10.868Z,15.54
2023-03-29T12:17:40.137Z,15.33
2023-03-29T12:20:11.304Z,15.06
2023-03-29T12:22:38.186Z,15.02
2023-03-29T12:25:09.686Z,15.05
2023-03-29T12:27:57.685Z,15.03
2023-03-29T12:30:38.351Z,14.73
2023-03-29T12:33:15.786Z,14.75
2023-03-29T12:35:53.166Z,14.82
2023-03-29T12:38:23.246Z,14.84
2023-03-29T12:41:00.161Z,15.02
2023-03-29T12:43:31.778Z,15.19
2023-03-29T12:46:06.679Z,15.44
2023-03-29T12:48:34.021Z,15.60
2023-03-29T12:51:02.620Z,15.63
2023-03-29T12:53:39.739Z,15.67
2023-03-29T12:56:08.517Z,15.70
2023-03-29T12:58:42.458Z,15.73
2023-03-29T13:01:28.529Z,15.80
2023-03-29T13:04:01.795Z,15.71
2023-03-29T13:07:03.439Z,15.53
2023-03-29T13:09:36.667Z,15.45
2023-03-29T13:12:15.840Z,15.51
2023-03-29T13:14:51.673Z,15.51
2023-03-29T13:17:33.421Z,15.57
2023-03-29T13:20:21.884Z,15.82
2023-03-29T13:23:15.617Z,15.93
2023-03-29T13:25:56.495Z,16.07
2023-03-29T13:28:35.050Z,16.05
2023-03-29T13:31:24.675Z,16.19
2023-03-29T13:34:20.998Z,16.06
2023-03-29T13:36:50.534Z,16.16
2023-03-29T13:39:23.042Z,16.29
2023-03-29T13:41:54.268Z,16.29
2023-03-29T13:44:43.509Z,16.27
2023-03-29T13:47:30.475Z,16.28
2023-03-29T13:50:05.284Z,16.47
2023-03-29T13:52:43.673Z,16.58
2023-03-29T13:55:33.268Z,16.54
2023-03-29T13:58:16.280Z,16.45
2023-03-29T14:01:09.555Z,16.35
2023-03-29T14:03:44.957Z,16.41
2023-03-29T14:06:15.403Z,16.42
2023-03-29T14:08:44.280Z,16.29
2023-03-29T14:11:29.096Z,16.04
2023-03-29T14:13:59.661Z,15.74
2023-03-29T14:16:29.395Z,15.59
2023-03-29T14:19:00.406Z,15.53
2023-03-29T14:21:27.041Z,15.47
2023-03-29T14:24:01.995Z,15.55
2023-03-29T14:26:34.529Z,15.50
2023-03-29T14:29:02.783Z,15.52
2023-03-29T14:31:38.872Z,15.46
2023-03-29T14:34:14.601Z,15.51
2023-03-29T14:36:45.476Z,15.55
2023-03-29T14:39:23.384Z,15.57
2023-03-29T14:41:59.326Z,15.60
2023-03-29T14:44:29.381Z,15.55
2023-03-29T14:46:56.680Z,15.56
2023-03-29T14:49:24.444Z,15.50
2023-03-29T14:51:53.234Z,15.55
2023-03-29T14:54:23.915Z,15.53
2023-03-29T14:56:51.626Z,15.42
2023-03-29T14:59:28.883Z,15.33
2023-03-29T15:01:57.080Z,15.37
2023-03-29T15:04:23.738Z,15.35
2023-03-29T15:06:52.302Z,15.37
2023-03-29T15:09:32.784Z,15.36
2023-03-29T15:12:01.684Z,15.33
2023-03-29T15:14:34.077Z,15.38
2023-03-29T15:17:04.578Z,15.46
2023-03-29T15:19:32.119Z,15.42
2023-03-29T15:22:05.955Z,15.41
2023-03-29T15:24:33.811Z,15.35
2023-03-29T15:27:13.403Z,15.28
2023-03-29T15:29:43.194Z,15.29
2023-03-29T15:32:19.971Z,15.22
2023-03-29T15:34:47.579Z,15.24
2023-03-29T15:37:14.770Z,15.10
2023-03-29T15:39:44.417Z,15.06
2023-03-29T15:42:11.090Z,14.96
2023-03-29T15:44:39.049Z,14.92
2023-03-29T15:47:13.254Z,14.87
2023-03-29T15:49:39.733Z,14.80
2023-03-29T15:52:06.850Z,14.71
2023-03-29T15:54:33.748Z,14.62
2023-03-29T15:57:06.302Z,14.52
2023-03-29T15:59:33.534Z,14.46
2023-03-29T16:02:00.884Z,14.42
2023-03-29T16:04:27.685Z,14.31
2023-03-29T16:06:55.207Z,14.24
2023-03-29T16:09:22.796Z,14.23
2023-03-29T16:11:49.721Z,14.20
2023-03-29T16:14:26.939Z,14.17
2023-03-29T16:16:58.197Z,14.09
2023-03-29T16:19:25.909Z,14.06
2023-03-29T16:21:54.237Z,13.99
2023-03-29T16:24:26.491Z,14.07
2023-03-29T16:26:56.079Z,14.01
2023-03-29T16:29:24.931Z,13.92
2023-03-29T16:31:54.024Z,13.88
2023-03-29T16:34:54.026Z,13.82
2023-03-29T16:37:48.743Z,13.77
2023-03-29T16:40:19.016Z,13.86
2023-03-29T16:42:46.028Z,13.82
2023-03-29T16:45:22.236Z,13.83
2023-03-29T16:47:49.382Z,13.85
2023-03-29T16:50:18.889Z,13.82
2023-03-29T16:52:48.422Z,13.91
2023-03-29T16:55:20.081Z,13.85
2023-03-29T16:57:47.721Z,13.83
2023-03-29T17:00:18.581Z,13.79
2023-03-29T17:02:46.088Z,13.78
2023-03-29T17:05:13.252Z,13.81
2023-03-29T17:07:39.808Z,13.69
2023-03-29T17:10:08.122Z,13.79
2023-03-29T17:12:35.313Z,13.71
2023-03-29T17:15:02.632Z,13.69
2023-03-29T17:17:29.231Z,13.65
2023-03-29T17:19:57.956Z,13.65
2023-03-29T17:22:25.988Z,13.62
2023-03-29T17:24:53.573Z,13.60
2023-03-29T17:27:20.949Z,13.54
2023-03-29T17:29:47.701Z,13.54
2023-03-29T17:32:14.464Z,13.49
2023-03-29T17:34:41.701Z,13.42
2023-03-29T17:37:09.504Z,13.30
2023-03-29T17:39:37.803Z,13.28
2023-03-29T17:42:05.404Z,13.13
2023-03-29T17:44:33.973Z,13.17
2023-03-29T17:47:00.973Z,13.08
2023-03-29T17:49:28.629Z,13.05
2023-03-29T17:51:55.397Z,12.95
2023-03-29T17:54:23.110Z,12.81
2023-03-29T17:56:50.804Z,12.71
2023-03-29T17:59:18.505Z,12.61
2023-03-29T18:01:45.154Z,12.54
2023-03-29T18:04:11.836Z,12.70
2023-03-29T18:06:39.555Z,12.69
2023-03-29T18:09:06.118Z,12.72
2023-03-29T18:11:33.033Z,12.68
2023-03-29T18:14:00.682Z,12.63
2023-03-29T18:16:27.381Z,12.60
2023-03-29T18:18:53.963Z,12.54
2023-03-29T18:21:21.930Z,12.62
2023-03-29T18:23:49.370Z,12.48
2023-03-29T18:26:18.210Z,12.52
2023-03-29T18:28:48.459Z,12.47
2023-03-29T18:31:15.592Z,12.50
2023-03-29T18:33:43.300Z,12.42
2023-03-29T18:36:13.245Z,12.39
2023-03-29T18:38:43.216Z,12.36
2023-03-29T18:41:12.161Z,12.38
2023-03-29T18:43:40.390Z,12.36
2023-03-29T18:46:08.358Z,12.29
2023-03-29T18:48:39.226Z,12.21
2023-03-29T18:51:07.426Z,12.15
2023-03-29T18:53:35.395Z,12.09
2023-03-29T18:56:04.257Z,12.26
2023-03-29T18:58:31.174Z,12.20
2023-03-29T19:01:10.293Z,12.25
2023-03-29T19:03:37.281Z,12.20
2023-03-29T19:06:04.918Z,12.18
2023-03-29T19:08:32.844Z,12.17
2023-03-29T19:11:05.623Z,12.12
2023-03-29T19:13:32.071Z,12.11
2023-03-29T19:15:59.723Z,12.18
2023-03-29T19:18:27.363Z,12.23
2023-03-29T19:20:54.296Z,12.21
2023-03-29T19:23:28.633Z,12.19
2023-03-29T19:25:57.853Z,12.23
2023-03-29T19:28:26.112Z,12.22
2023-03-29T19:30:53.056Z,12.23
2023-03-29T19:33:20.829Z,12.24
2023-03-29T19:36:03.179Z,12.19
2023-03-29T19:38:30.147Z,12.25
2023-03-29T19:40:56.806Z,12.27
2023-03-29T19:43:25.235Z,12.20
2023-03-29T19:45:52.127Z,12.12
2023-03-29T19:48:23.371Z,12.12
2023-03-29T19:50:51.973Z,12.15
2023-03-29T19:53:18.509Z,12.15
2023-03-29T19:55:45.549Z,12.14
2023-03-29T19:58:12.659Z,12.01
2023-03-29T20:00:39.564Z,11.96
2023-03-29T20:03:09.892Z,11.91
2023-03-29T20:05:38.329Z,11.97
2023-03-29T20:08:04.884Z,11.98
2023-03-29T20:10:31.877Z,11.93
2023-03-29T20:12:58.571Z,11.96
2023-03-29T20:15:28.506Z,11.98
2023-03-29T20:17:59.361Z,11.96
2023-03-29T20:20:26.858Z,11.96
2023-03-29T20:23:05.219Z,12.04
2023-03-29T20:25:34.289Z,12.04
2023-03-29T20:28:00.896Z,11.96
2023-03-29T20:30:27.406Z,11.99
2023-03-29T20:32:54.481Z,11.92
2023-03-29T20:35:21.105Z,11.92
2023-03-29T20:37:47.670Z,11.92
2023-03-29T20:40:15.723Z,11.92
2023-03-29T20:42:46.658Z,11.92
2023-03-29T20:45:18.665Z,11.84
2023-03-29T20:47:57.376Z,11.74
2023-03-29T20:50:26.763Z,11.68
2023-03-29T20:52:54.775Z,11.58
2023-03-29T20:55:22.690Z,11.55
2023-03-29T20:57:59.451Z,11.56
2023-03-29T21:00:28.763Z,11.58
2023-03-29T21:02:56.316Z,11.59
2023-03-29T21:05:23.584Z,11.69
2023-03-29T21:07:50.093Z,11.71
2023-03-29T21:10:17.124Z,11.78
2023-03-29T21:12:43.634Z,11.85
2023-03-29T21:15:13.447Z,11.85
2023-03-29T21:17:40.263Z,11.81
2023-03-29T21:20:12.759Z,11.79
2023-03-29T21:22:40.629Z,11.85
2023-03-29T21:25:12.477Z,11.93
2023-03-29T21:27:39.061Z,11.94
2023-03-29T21:30:07.025Z,12.00
2023-03-29T21:32:33.667Z,11.98
2023-03-29T21:35:00.795Z,11.96
2023-03-29T21:37:27.390Z,11.95
2023-03-29T21:39:53.838Z,11.86
2023-03-29T21:42:21.050Z,11.91
2023-03-29T21:44:47.513Z,11.98
2023-03-29T21:47:14.114Z,11.92
2023-03-29T21:49:40.974Z,11.84
2023-03-29T21:52:07.901Z,11.81
2023-03-29T21:54:34.335Z,11.72
2023-03-29T21:57:01.195Z,11.79
2023-03-29T21:59:27.946Z,11.84
2023-03-29T22:01:54.626Z,11.78
2023-03-29T22:04:33.651Z,11.75
2023-03-29T22:07:02.934Z,11.76
2023-03-29T22:09:29.799Z,11.76
2023-03-29T22:11:56.845Z,11.79
2023-03-29T22:14:23.838Z,11.86
2023-03-29T22:16:50.415Z,11.88
2023-03-29T22:19:17.096Z,11.84
2023-03-29T22:21:44.704Z,11.85
2023-03-29T22:24:11.559Z,11.85
2023-03-29T22:26:38.227Z,11.94
2023-03-29T22:29:04.681Z,11.89
2023-03-29T22:31:32.150Z,11.95
2023-03-29T22:33:58.816Z,12.00
2023-03-29T22:36:31.273Z,12.00
2023-03-29T22:38:58.110Z,11.93
2023-03-29T22:41:27.573Z,11.92
2023-03-29T22:43:56.141Z,11.96
2023-03-29T22:46:24.187Z,11.99
2023-03-29T22:48:51.584Z,11.99
2023-03-29T22:51:18.217Z,12.03
2023-03-29T22:53:47.316Z,12.04
2023-03-29T22:56:15.569Z,12.09
2023-03-29T22:58:43.119Z,12.06
2023-03-29T23:01:09.742Z,12.04
2023-03-29T23:03:37.146Z,12.09
2023-03-29T23:06:04.135Z,12.13
2023-03-29T23:08:33.621Z,12.17
2023-03-29T23:11:01.298Z,12.20
2023-03-29T23:13:29.123Z,12.13
2023-03-29T23:16:00.325Z,12.18
2023-03-29T23:18:29.441Z,12.18
2023-03-29T23:20:58.258Z,12.25
2023-03-29T23:23:26.686Z,12.21
2023-03-29T23:25:54.947Z,12.19
2023-03-29T23:28:25.216Z,12.10
2023-03-29T23:31:00.631Z,12.17
2023-03-29T23:33:29.172Z,12.10
2023-03-29T23:35:55.874Z,12.00
2023-03-29T23:38:23.514Z,12.07
2023-03-29T23:40:59.195Z,12.10
2023-03-29T23:43:32.153Z,12.11
2023-03-29T23:46:18.810Z,12.09
2023-03-29T23:48:47.810Z,12.16
2023-03-29T23:51:15.123Z,12.20
2023-03-29T23:53:41.837Z,12.29
2023-03-29T23:56:09.076Z,12.47
2023-03-29T23:58:37.863Z,12.52
